sensor_id;sensor_type;location;lat;lon;timestamp;pressure;altitude;pressure_sealevel;temperature
31921;BMP280;66485;52.128;4.436;2023-04-29T00:02:03;101672.63;;;17.35
31921;BMP280;66485;52.128;4.436;2023-04-29T00:04:28;101674.56;;;17.34
31921;BMP280;66485;52.128;4.436;2023-04-29T00:06:53;101690.41;;;17.36
31921;BMP280;66485;52.128;4.436;2023-04-29T00:09:20;101694.66;;;17.37
31921;BMP280;66485;52.128;4.436;2023-04-29T00:11:45;101691.59;;;17.35
31921;BMP280;66485;52.128;4.436;2023-04-29T00:14:12;101691.59;;;17.35
31921;BMP280;66485;52.128;4.436;2023-04-29T00:16:37;101691.59;;;17.35
31921;BMP280;66485;52.128;4.436;2023-04-29T00:19:02;101700.09;;;17.33
31921;BMP280;66485;52.128;4.436;2023-04-29T00:21:28;101700.09;;;17.33
31921;BMP280;66485;52.128;4.436;2023-04-29T00:23:54;101700.09;;;17.33
31921;BMP280;66485;52.128;4.436;2023-04-29T00:26:20;101700.06;;;17.30
31921;BMP280;66485;52.128;4.436;2023-04-29T00:28:45;101704.31;;;17.31
31921;BMP280;66485;52.128;4.436;2023-04-29T00:31:10;101712.81;;;17.33
31921;BMP280;66485;52.128;4.436;2023-04-29T00:33:36;101703.91;;;17.32
31921;BMP280;66485;52.128;4.436;2023-04-29T00:36:01;101711.28;;;17.32
31921;BMP280;66485;52.128;4.436;2023-04-29T00:38:27;101709.72;;;17.31
31921;BMP280;66485;52.128;4.436;2023-04-29T00:40:52;101709.72;;;17.31
31921;BMP280;66485;52.128;4.436;2023-04-29T00:43:17;101717.84;;;17.31
31921;BMP280;66485;52.128;4.436;2023-04-29T00:45:43;101721.31;;;17.31
31921;BMP280;66485;52.128;4.436;2023-04-29T00:48:09;101713.59;;;17.30
31921;BMP280;66485;52.128;4.436;2023-04-29T00:50:35;101710.91;;;17.30
31921;BMP280;66485;52.128;4.436;2023-04-29T00:53:00;101715.13;;;17.31
31921;BMP280;66485;52.128;4.436;2023-04-29T00:55:27;101717.84;;;17.31
31921;BMP280;66485;52.128;4.436;2023-04-29T00:57:52;101717.84;;;17.31
31921;BMP280;66485;52.128;4.436;2023-04-29T01:00:18;101718.25;;;17.33
31921;BMP280;66485;52.128;4.436;2023-04-29T01:02:45;101718.25;;;17.33
31921;BMP280;66485;52.128;4.436;2023-04-29T01:05:10;101716.69;;;17.28
31921;BMP280;66485;52.128;4.436;2023-04-29T01:10:14;101720.56;;;17.31
31921;BMP280;66485;52.128;4.436;2023-04-29T01:12:45;101723.66;;;17.29
31921;BMP280;66485;52.128;4.436;2023-04-29T01:15:30;101728.31;;;17.29
31921;BMP280;66485;52.128;4.436;2023-04-29T01:18:04;101728.31;;;17.29
31921;BMP280;66485;52.128;4.436;2023-04-29T01:20:31;101728.31;;;17.29
31921;BMP280;66485;52.128;4.436;2023-04-29T01:22:57;101732.16;;;17.28
31921;BMP280;66485;52.128;4.436;2023-04-29T01:25:22;101734.09;;;17.27
31921;BMP280;66485;52.128;4.436;2023-04-29T01:28:35;101733.72;;;17.29
31921;BMP280;66485;52.128;4.436;2023-04-29T01:31:15;101735.66;;;17.28
31921;BMP280;66485;52.128;4.436;2023-04-29T01:42:09;101732.16;;;17.28
31921;BMP280;66485;52.128;4.436;2023-04-29T01:44:39;101730.25;;;17.25
31921;BMP280;66485;52.128;4.436;2023-04-29T01:47:06;101728.31;;;17.25
31921;BMP280;66485;52.128;4.436;2023-04-29T01:49:35;101732.94;;;17.25
31921;BMP280;66485;52.128;4.436;2023-04-29T01:52:01;101736.81;;;17.24
31921;BMP280;66485;52.128;4.436;2023-04-29T01:54:27;101744.16;;;17.23
31921;BMP280;66485;52.128;4.436;2023-04-29T01:56:52;101740.69;;;17.23
31921;BMP280;66485;52.128;4.436;2023-04-29T01:59:18;101743.00;;;17.24
31921;BMP280;66485;52.128;4.436;2023-04-29T02:01:44;101741.81;;;17.22
31921;BMP280;66485;52.128;4.436;2023-04-29T02:04:09;101748.81;;;17.23
31921;BMP280;66485;52.128;4.436;2023-04-29T02:06:34;101749.94;;;17.22
31921;BMP280;66485;52.128;4.436;2023-04-29T02:08:59;101749.94;;;17.22
31921;BMP280;66485;52.128;4.436;2023-04-29T02:11:25;101751.84;;;17.21
31921;BMP280;66485;52.128;4.436;2023-04-29T02:13:50;101745.66;;;17.21
31921;BMP280;66485;52.128;4.436;2023-04-29T02:16:16;101754.56;;;17.21
31921;BMP280;66485;52.128;4.436;2023-04-29T02:18:41;101762.34;;;17.23
31921;BMP280;66485;52.128;4.436;2023-04-29T02:21:07;101762.34;;;17.23
31921;BMP280;66485;52.128;4.436;2023-04-29T02:23:33;101757.69;;;17.20
31921;BMP280;66485;52.128;4.436;2023-04-29T02:25:59;101763.47;;;17.22
31921;BMP280;66485;52.128;4.436;2023-04-29T02:28:25;101770.84;;;17.28
31921;BMP280;66485;52.128;4.436;2023-04-29T02:30:51;101773.16;;;17.26
31921;BMP280;66485;52.128;4.436;2023-04-29T02:33:16;101773.19;;;17.30
31921;BMP280;66485;52.128;4.436;2023-04-29T02:35:42;101773.19;;;17.30
31921;BMP280;66485;52.128;4.436;2023-04-29T02:38:08;101766.59;;;17.24
31921;BMP280;66485;52.128;4.436;2023-04-29T02:40:33;101780.50;;;17.22
31921;BMP280;66485;52.128;4.436;2023-04-29T02:42:58;101782.84;;;17.24
31921;BMP280;66485;52.128;4.436;2023-04-29T02:45:25;101778.94;;;17.18
31921;BMP280;66485;52.128;4.436;2023-04-29T02:47:50;101778.94;;;17.18
31921;BMP280;66485;52.128;4.436;2023-04-29T02:50:16;101790.16;;;17.20
31921;BMP280;66485;52.128;4.436;2023-04-29T02:52:41;101799.03;;;17.17
31921;BMP280;66485;52.128;4.436;2023-04-29T02:55:07;101801.75;;;17.17
31921;BMP280;66485;52.128;4.436;2023-04-29T02:57:33;101804.09;;;17.18
31921;BMP280;66485;52.128;4.436;2023-04-29T02:59:59;101813.34;;;17.17
31921;BMP280;66485;52.128;4.436;2023-04-29T03:02:24;101801.38;;;17.18
31921;BMP280;66485;52.128;4.436;2023-04-29T03:04:50;101807.16;;;17.17
31921;BMP280;66485;52.128;4.436;2023-04-29T03:07:16;101812.97;;;17.19
31921;BMP280;66485;52.128;4.436;2023-04-29T03:09:42;101810.28;;;17.15
31921;BMP280;66485;52.128;4.436;2023-04-29T03:12:08;101814.50;;;17.16
31921;BMP280;66485;52.128;4.436;2023-04-29T03:14:33;101819.19;;;17.19
31921;BMP280;66485;52.128;4.436;2023-04-29T03:17:00;101819.16;;;17.16
31921;BMP280;66485;52.128;4.436;2023-04-29T03:19:25;101818.78;;;17.14
31921;BMP280;66485;52.128;4.436;2023-04-29T03:21:50;101816.44;;;17.16
31921;BMP280;66485;52.128;4.436;2023-04-29T03:24:15;101818.41;;;17.15
31921;BMP280;66485;52.128;4.436;2023-04-29T03:26:41;101818.00;;;17.17
31921;BMP280;66485;52.128;4.436;2023-04-29T03:29:09;101818.00;;;17.17
31921;BMP280;66485;52.128;4.436;2023-04-29T03:31:34;101819.56;;;17.14
31921;BMP280;66485;52.128;4.436;2023-04-29T03:34:00;101820.34;;;17.15
31921;BMP280;66485;52.128;4.436;2023-04-29T03:36:25;101818.78;;;17.14
31921;BMP280;66485;52.128;4.436;2023-04-29T03:38:50;101819.94;;;17.13
31921;BMP280;66485;52.128;4.436;2023-04-29T03:41:16;101819.94;;;17.13
31921;BMP280;66485;52.128;4.436;2023-04-29T03:43:41;101830.38;;;17.14
31921;BMP280;66485;52.128;4.436;2023-04-29T03:46:08;101827.63;;;17.11
31921;BMP280;66485;52.128;4.436;2023-04-29T03:48:33;101832.69;;;17.16
31921;BMP280;66485;52.128;4.436;2023-04-29T03:50:59;101832.69;;;17.16
31921;BMP280;66485;52.128;4.436;2023-04-29T03:53:24;101842.38;;;17.17
31921;BMP280;66485;52.128;4.436;2023-04-29T03:55:50;101839.28;;;17.18
31921;BMP280;66485;52.128;4.436;2023-04-29T03:58:15;101839.28;;;17.18
31921;BMP280;66485;52.128;4.436;2023-04-29T04:00:41;101847.41;;;17.22
31921;BMP280;66485;52.128;4.436;2023-04-29T04:03:06;101844.31;;;17.20
31921;BMP280;66485;52.128;4.436;2023-04-29T04:05:31;101838.91;;;17.20
31921;BMP280;66485;52.128;4.436;2023-04-29T04:07:57;101842.38;;;17.17
31921;BMP280;66485;52.128;4.436;2023-04-29T04:10:23;101848.56;;;17.17
31921;BMP280;66485;52.128;4.436;2023-04-29T04:12:48;101847.41;;;17.15
31921;BMP280;66485;52.128;4.436;2023-04-29T04:15:14;101847.41;;;17.15
31921;BMP280;66485;52.128;4.436;2023-04-29T04:17:41;101854.31;;;17.09
31921;BMP280;66485;52.128;4.436;2023-04-29T04:20:06;101854.31;;;17.09
31921;BMP280;66485;52.128;4.436;2023-04-29T04:22:32;101862.03;;;17.10
31921;BMP280;66485;52.128;4.436;2023-04-29T04:24:57;101860.09;;;17.11
31921;BMP280;66485;52.128;4.436;2023-04-29T04:27:23;101866.28;;;17.11
31921;BMP280;66485;52.128;4.436;2023-04-29T04:29:52;101866.28;;;17.11
31921;BMP280;66485;52.128;4.436;2023-04-29T04:32:18;101866.69;;;17.10
31921;BMP280;66485;52.128;4.436;2023-04-29T04:34:44;101875.22;;;17.12
31921;BMP280;66485;52.128;4.436;2023-04-29T04:37:09;101879.50;;;17.13
31921;BMP280;66485;52.128;4.436;2023-04-29T04:39:34;101878.72;;;17.12
31921;BMP280;66485;52.128;4.436;2023-04-29T04:42:00;101881.41;;;17.12
31921;BMP280;66485;52.128;4.436;2023-04-29T04:44:27;101887.19;;;17.11
31921;BMP280;66485;52.128;4.436;2023-04-29T04:46:52;101887.19;;;17.11
31921;BMP280;66485;52.128;4.436;2023-04-29T04:49:17;101890.66;;;17.08
31921;BMP280;66485;52.128;4.436;2023-04-29T04:51:43;101904.59;;;17.10
31921;BMP280;66485;52.128;4.436;2023-04-29T04:54:09;101901.91;;;17.10
31921;BMP280;66485;52.128;4.436;2023-04-29T04:56:35;101910.00;;;17.10
31921;BMP280;66485;52.128;4.436;2023-04-29T04:59:02;101911.94;;;17.09
31921;BMP280;66485;52.128;4.436;2023-04-29T05:01:27;101915.84;;;17.12
31921;BMP280;66485;52.128;4.436;2023-04-29T05:03:53;101913.88;;;17.09
31921;BMP280;66485;52.128;4.436;2023-04-29T05:06:18;101913.88;;;17.09
31921;BMP280;66485;52.128;4.436;2023-04-29T05:08:43;101918.88;;;17.10
31921;BMP280;66485;52.128;4.436;2023-04-29T05:11:18;101925.06;;;17.11
31921;BMP280;66485;52.128;4.436;2023-04-29T05:13:44;101930.94;;;17.13
31921;BMP280;66485;52.128;4.436;2023-04-29T05:16:10;101937.09;;;17.10
31921;BMP280;66485;52.128;4.436;2023-04-29T05:18:35;101937.09;;;17.10
31921;BMP280;66485;52.128;4.436;2023-04-29T05:21:01;101937.84;;;17.10
31921;BMP280;66485;52.128;4.436;2023-04-29T05:23:26;101937.84;;;17.10
31921;BMP280;66485;52.128;4.436;2023-04-29T05:25:52;101942.94;;;17.15
31921;BMP280;66485;52.128;4.436;2023-04-29T05:28:17;101949.91;;;17.20
31921;BMP280;66485;52.128;4.436;2023-04-29T05:30:43;101949.91;;;17.20
31921;BMP280;66485;52.128;4.436;2023-04-29T05:33:09;101959.94;;;17.16
31921;BMP280;66485;52.128;4.436;2023-04-29T05:35:35;101957.25;;;17.19
31921;BMP280;66485;52.128;4.436;2023-04-29T05:38:01;101959.56;;;17.21
31921;BMP280;66485;52.128;4.436;2023-04-29T05:40:26;101959.56;;;17.21
31921;BMP280;66485;52.128;4.436;2023-04-29T05:42:51;101959.22;;;17.22
31921;BMP280;66485;52.128;4.436;2023-04-29T05:45:17;101961.50;;;17.13
31921;BMP280;66485;52.128;4.436;2023-04-29T05:47:42;101956.06;;;17.13
31921;BMP280;66485;52.128;4.436;2023-04-29T05:50:08;101964.56;;;17.12
31921;BMP280;66485;52.128;4.436;2023-04-29T05:52:33;101971.09;;;17.11
31921;BMP280;66485;52.128;4.436;2023-04-29T05:54:58;101978.88;;;17.12
31921;BMP280;66485;52.128;4.436;2023-04-29T05:57:24;101988.19;;;17.15
31921;BMP280;66485;52.128;4.436;2023-04-29T05:59:49;101988.19;;;17.15
31921;BMP280;66485;52.128;4.436;2023-04-29T06:02:14;101988.19;;;17.15
31921;BMP280;66485;52.128;4.436;2023-04-29T06:04:40;101998.25;;;17.14
31921;BMP280;66485;52.128;4.436;2023-04-29T06:07:05;102002.09;;;17.17
31921;BMP280;66485;52.128;4.436;2023-04-29T06:09:34;102005.59;;;17.17
31921;BMP280;66485;52.128;4.436;2023-04-29T06:12:00;102005.97;;;17.16
31921;BMP280;66485;52.128;4.436;2023-04-29T06:14:25;102016.78;;;17.16
31921;BMP280;66485;52.128;4.436;2023-04-29T06:16:50;102018.34;;;17.17
31921;BMP280;66485;52.128;4.436;2023-04-29T06:19:16;102018.34;;;17.17
31921;BMP280;66485;52.128;4.436;2023-04-29T06:21:41;102021.47;;;17.19
31921;BMP280;66485;52.128;4.436;2023-04-29T06:24:07;102023.78;;;17.20
31921;BMP280;66485;52.128;4.436;2023-04-29T06:26:32;102023.78;;;17.20
31921;BMP280;66485;52.128;4.436;2023-04-29T06:28:57;102033.84;;;17.20
31921;BMP280;66485;52.128;4.436;2023-04-29T06:31:23;102033.84;;;17.20
31921;BMP280;66485;52.128;4.436;2023-04-29T06:33:48;102029.19;;;17.20
31921;BMP280;66485;52.128;4.436;2023-04-29T06:36:13;102036.94;;;17.22
31921;BMP280;66485;52.128;4.436;2023-04-29T06:38:38;102036.22;;;17.25
31921;BMP280;66485;52.128;4.436;2023-04-29T06:41:04;102037.38;;;17.24
31921;BMP280;66485;52.128;4.436;2023-04-29T06:43:29;102037.38;;;17.24
31921;BMP280;66485;52.128;4.436;2023-04-29T06:45:55;102049.75;;;17.25
31921;BMP280;66485;52.128;4.436;2023-04-29T06:48:21;102045.50;;;17.24
31921;BMP280;66485;52.128;4.436;2023-04-29T06:53:14;102064.47;;;17.31
31921;BMP280;66485;52.128;4.436;2023-04-29T06:55:40;102060.25;;;17.30
31921;BMP280;66485;52.128;4.436;2023-04-29T06:58:05;102070.34;;;17.36
31921;BMP280;66485;52.128;4.436;2023-04-29T07:00:31;102070.34;;;17.36
31921;BMP280;66485;52.128;4.436;2023-04-29T07:02:56;102067.59;;;17.33
31921;BMP280;66485;52.128;4.436;2023-04-29T07:05:22;102079.22;;;17.33
31921;BMP280;66485;52.128;4.436;2023-04-29T07:07:47;102083.13;;;17.39
31921;BMP280;66485;52.128;4.436;2023-04-29T07:10:12;102088.56;;;17.39
31921;BMP280;66485;52.128;4.436;2023-04-29T07:12:38;102088.16;;;17.41
31921;BMP280;66485;52.128;4.436;2023-04-29T07:15:04;102087.38;;;17.40
31921;BMP280;66485;52.128;4.436;2023-04-29T07:17:29;102089.72;;;17.42
31921;BMP280;66485;52.128;4.436;2023-04-29T07:19:55;102087.44;;;17.44
31921;BMP280;66485;52.128;4.436;2023-04-29T07:22:20;102098.66;;;17.46
31921;BMP280;66485;52.128;4.436;2023-04-29T07:24:46;102102.16;;;17.47
31921;BMP280;66485;52.128;4.436;2023-04-29T07:27:12;102100.63;;;17.49
31921;BMP280;66485;52.128;4.436;2023-04-29T07:29:37;102102.94;;;17.51
31921;BMP280;66485;52.128;4.436;2023-04-29T07:32:02;102114.53;;;17.51
31921;BMP280;66485;52.128;4.436;2023-04-29T07:34:28;102114.53;;;17.51
31921;BMP280;66485;52.128;4.436;2023-04-29T07:36:53;102115.78;;;17.61
31921;BMP280;66485;52.128;4.436;2023-04-29T07:39:18;102116.59;;;17.65
31921;BMP280;66485;52.128;4.436;2023-04-29T07:41:44;102116.59;;;17.65
31921;BMP280;66485;52.128;4.436;2023-04-29T07:44:10;102125.47;;;17.65
31921;BMP280;66485;52.128;4.436;2023-04-29T07:46:35;102125.47;;;17.65
31921;BMP280;66485;52.128;4.436;2023-04-29T07:49:00;102113.16;;;17.68
31921;BMP280;66485;52.128;4.436;2023-04-29T07:51:26;102123.59;;;17.69
31921;BMP280;66485;52.128;4.436;2023-04-29T07:53:53;102122.44;;;17.70
31921;BMP280;66485;52.128;4.436;2023-04-29T07:56:18;102123.19;;;17.71
31921;BMP280;66485;52.128;4.436;2023-04-29T07:58:44;102125.53;;;17.72
31921;BMP280;66485;52.128;4.436;2023-04-29T08:01:09;102125.53;;;17.72
31921;BMP280;66485;52.128;4.436;2023-04-29T08:03:36;102125.53;;;17.72
31921;BMP280;66485;52.128;4.436;2023-04-29T08:06:02;102128.63;;;17.71
31921;BMP280;66485;52.128;4.436;2023-04-29T08:08:29;102129.03;;;17.73
31921;BMP280;66485;52.128;4.436;2023-04-29T08:10:54;102140.66;;;17.73
31921;BMP280;66485;52.128;4.436;2023-04-29T08:13:20;102140.66;;;17.73
31921;BMP280;66485;52.128;4.436;2023-04-29T08:15:45;102136.38;;;17.72
31921;BMP280;66485;52.128;4.436;2023-04-29T08:18:10;102136.38;;;17.72
31921;BMP280;66485;52.128;4.436;2023-04-29T08:20:36;102136.38;;;17.72
31921;BMP280;66485;52.128;4.436;2023-04-29T08:23:01;102134.44;;;17.73
31921;BMP280;66485;52.128;4.436;2023-04-29T08:25:26;102133.69;;;17.72
31921;BMP280;66485;52.128;4.436;2023-04-29T08:27:52;102133.69;;;17.72
31921;BMP280;66485;52.128;4.436;2023-04-29T08:30:18;102134.06;;;17.74
31921;BMP280;66485;52.128;4.436;2023-04-29T08:32:43;102138.72;;;17.74
31921;BMP280;66485;52.128;4.436;2023-04-29T08:35:09;102139.88;;;17.73
31921;BMP280;66485;52.128;4.436;2023-04-29T08:37:34;102142.97;;;17.75
31921;BMP280;66485;52.128;4.436;2023-04-29T08:39:59;102148.03;;;17.76
31921;BMP280;66485;52.128;4.436;2023-04-29T08:42:33;102151.53;;;17.77
31921;BMP280;66485;52.128;4.436;2023-04-29T08:44:59;102151.53;;;17.77
31921;BMP280;66485;52.128;4.436;2023-04-29T08:47:30;102149.16;;;17.75
31921;BMP280;66485;52.128;4.436;2023-04-29T08:49:58;102153.81;;;17.75
31921;BMP280;66485;52.128;4.436;2023-04-29T08:52:25;102154.66;;;17.79
31921;BMP280;66485;52.128;4.436;2023-04-29T08:54:50;102154.66;;;17.79
31921;BMP280;66485;52.128;4.436;2023-04-29T08:57:16;102158.09;;;17.79
31921;BMP280;66485;52.128;4.436;2023-04-29T08:59:41;102155.03;;;17.77
31921;BMP280;66485;52.128;4.436;2023-04-29T09:02:11;102162.38;;;17.81
31921;BMP280;66485;52.128;4.436;2023-04-29T09:07:16;102162.38;;;17.81
31921;BMP280;66485;52.128;4.436;2023-04-29T09:09:42;102165.88;;;17.81
31921;BMP280;66485;52.128;4.436;2023-04-29T09:12:07;102170.13;;;17.82
31921;BMP280;66485;52.128;4.436;2023-04-29T09:14:33;102170.91;;;17.83
31921;BMP280;66485;52.128;4.436;2023-04-29T09:16:59;102170.91;;;17.83
31921;BMP280;66485;52.128;4.436;2023-04-29T09:19:35;102182.13;;;17.85
31921;BMP280;66485;52.128;4.436;2023-04-29T09:22:02;102182.13;;;17.85
31921;BMP280;66485;52.128;4.436;2023-04-29T09:24:29;102176.00;;;17.88
31921;BMP280;66485;52.128;4.436;2023-04-29T09:26:55;102179.09;;;17.90
31921;BMP280;66485;52.128;4.436;2023-04-29T09:29:21;102179.09;;;17.90
31921;BMP280;66485;52.128;4.436;2023-04-29T09:31:47;102170.91;;;17.86
31921;BMP280;66485;52.128;4.436;2023-04-29T09:34:13;102183.75;;;17.89
31921;BMP280;66485;52.128;4.436;2023-04-29T09:36:44;102183.38;;;17.91
31921;BMP280;66485;52.128;4.436;2023-04-29T09:39:18;102183.38;;;17.91
31921;BMP280;66485;52.128;4.436;2023-04-29T09:44:26;102178.34;;;17.93
31921;BMP280;66485;52.128;4.436;2023-04-29T09:49:26;102185.72;;;17.96
31921;BMP280;66485;52.128;4.436;2023-04-29T09:51:55;102187.66;;;17.99
31921;BMP280;66485;52.128;4.436;2023-04-29T09:54:23;102190.00;;;18.00
31921;BMP280;66485;52.128;4.436;2023-04-29T09:56:50;102190.00;;;18.00
31921;BMP280;66485;52.128;4.436;2023-04-29T09:59:16;102188.50;;;18.03
31921;BMP280;66485;52.128;4.436;2023-04-29T10:01:42;102188.50;;;18.03
31921;BMP280;66485;52.128;4.436;2023-04-29T10:04:09;102188.53;;;18.10
31921;BMP280;66485;52.128;4.436;2023-04-29T10:06:38;102184.28;;;18.12
31921;BMP280;66485;52.128;4.436;2023-04-29T10:09:07;102197.47;;;18.17
31921;BMP280;66485;52.128;4.436;2023-04-29T10:11:36;102201.38;;;18.20
31921;BMP280;66485;52.128;4.436;2023-04-29T10:14:03;102202.16;;;18.24
31921;BMP280;66485;52.128;4.436;2023-04-29T10:16:32;102202.16;;;18.24
31921;BMP280;66485;52.128;4.436;2023-04-29T10:18:59;102193.22;;;18.20
31921;BMP280;66485;52.128;4.436;2023-04-29T10:21:28;102205.28;;;18.30
31921;BMP280;66485;52.128;4.436;2023-04-29T10:23:56;102206.47;;;18.36
31921;BMP280;66485;52.128;4.436;2023-04-29T10:26:27;102205.72;;;18.39
31921;BMP280;66485;52.128;4.436;2023-04-29T10:28:57;102205.72;;;18.39
31921;BMP280;66485;52.128;4.436;2023-04-29T10:31:27;102200.28;;;18.39
31921;BMP280;66485;52.128;4.436;2023-04-29T10:33:55;102209.63;;;18.48
31921;BMP280;66485;52.128;4.436;2023-04-29T10:36:22;102206.16;;;18.48
31921;BMP280;66485;52.128;4.436;2023-04-29T10:38:53;102205.00;;;18.52
31921;BMP280;66485;52.128;4.436;2023-04-29T10:41:21;102205.41;;;18.54
31921;BMP280;66485;52.128;4.436;2023-04-29T10:43:51;102209.28;;;18.57
31921;BMP280;66485;52.128;4.436;2023-04-29T10:46:20;102211.63;;;18.59
31921;BMP280;66485;52.128;4.436;2023-04-29T10:48:47;102211.63;;;18.59
31921;BMP280;66485;52.128;4.436;2023-04-29T10:51:27;102212.44;;;18.66
31921;BMP280;66485;52.128;4.436;2023-04-29T10:53:57;102205.84;;;18.71
31921;BMP280;66485;52.128;4.436;2023-04-29T10:56:38;102205.09;;;18.74
31921;BMP280;66485;52.128;4.436;2023-04-29T10:59:03;102211.31;;;18.78
31921;BMP280;66485;52.128;4.436;2023-04-29T11:01:51;102203.53;;;18.76
31921;BMP280;66485;52.128;4.436;2023-04-29T11:04:20;102203.53;;;18.76
31921;BMP280;66485;52.128;4.436;2023-04-29T11:06:51;102210.94;;;18.86
31921;BMP280;66485;52.128;4.436;2023-04-29T11:09:25;102210.94;;;18.86
31921;BMP280;66485;52.128;4.436;2023-04-29T11:14:33;102215.22;;;19.02
31921;BMP280;66485;52.128;4.436;2023-04-29T11:17:12;102216.81;;;19.06
31921;BMP280;66485;52.128;4.436;2023-04-29T11:19:46;102222.63;;;19.15
31921;BMP280;66485;52.128;4.436;2023-04-29T11:22:33;102226.13;;;19.19
31921;BMP280;66485;52.128;4.436;2023-04-29T11:25:05;102226.13;;;19.19
31921;BMP280;66485;52.128;4.436;2023-04-29T11:27:32;102221.88;;;19.25
31921;BMP280;66485;52.128;4.436;2023-04-29T11:29:59;102219.16;;;19.25
31921;BMP280;66485;52.128;4.436;2023-04-29T11:32:26;102226.56;;;19.32
31921;BMP280;66485;52.128;4.436;2023-04-29T11:34:52;102221.09;;;19.36
31921;BMP280;66485;52.128;4.436;2023-04-29T11:37:26;102218.41;;;19.39
31921;BMP280;66485;52.128;4.436;2023-04-29T11:39:58;102229.25;;;19.43
31921;BMP280;66485;52.128;4.436;2023-04-29T11:42:24;102227.31;;;19.43
31921;BMP280;66485;52.128;4.436;2023-04-29T11:44:53;102230.81;;;19.51
31921;BMP280;66485;52.128;4.436;2023-04-29T11:47:18;102233.91;;;19.56
31921;BMP280;66485;52.128;4.436;2023-04-29T11:49:45;102239.75;;;19.58
31921;BMP280;66485;52.128;4.436;2023-04-29T11:52:11;102239.75;;;19.58
31921;BMP280;66485;52.128;4.436;2023-04-29T11:54:37;102239.75;;;19.65
31921;BMP280;66485;52.128;4.436;2023-04-29T11:57:02;102238.56;;;19.74
31921;BMP280;66485;52.128;4.436;2023-04-29T11:59:30;102238.56;;;19.74
31921;BMP280;66485;52.128;4.436;2023-04-29T12:01:57;102239.00;;;19.72
31921;BMP280;66485;52.128;4.436;2023-04-29T12:04:23;102239.00;;;19.72
31921;BMP280;66485;52.128;4.436;2023-04-29T12:06:50;102238.19;;;19.75
31921;BMP280;66485;52.128;4.436;2023-04-29T12:09:17;102240.13;;;19.85
31921;BMP280;66485;52.128;4.436;2023-04-29T12:11:43;102240.13;;;19.89
31921;BMP280;66485;52.128;4.436;2023-04-29T12:14:11;102238.16;;;19.96
31921;BMP280;66485;52.128;4.436;2023-04-29T12:16:37;102248.66;;;19.98
31921;BMP280;66485;52.128;4.436;2023-04-29T12:19:02;102242.44;;;20.04
31921;BMP280;66485;52.128;4.436;2023-04-29T12:21:28;102230.00;;;20.07
31921;BMP280;66485;52.128;4.436;2023-04-29T12:23:53;102242.41;;;20.08
31921;BMP280;66485;52.128;4.436;2023-04-29T12:26:19;102242.41;;;20.08
31921;BMP280;66485;52.128;4.436;2023-04-29T12:28:48;102246.28;;;20.18
31921;BMP280;66485;52.128;4.436;2023-04-29T12:31:17;102245.47;;;20.24
31921;BMP280;66485;52.128;4.436;2023-04-29T12:33:43;102245.47;;;20.28
31921;BMP280;66485;52.128;4.436;2023-04-29T12:36:15;102250.13;;;20.31
31921;BMP280;66485;52.128;4.436;2023-04-29T12:38:46;102251.66;;;20.35
31921;BMP280;66485;52.128;4.436;2023-04-29T12:41:11;102247.00;;;20.36
31921;BMP280;66485;52.128;4.436;2023-04-29T12:43:38;102253.56;;;20.42
31921;BMP280;66485;52.128;4.436;2023-04-29T12:46:05;102257.03;;;20.46
31921;BMP280;66485;52.128;4.436;2023-04-29T12:48:32;102254.31;;;20.46
31921;BMP280;66485;52.128;4.436;2023-04-29T12:50:59;102264.00;;;20.54
31921;BMP280;66485;52.128;4.436;2023-04-29T12:53:26;102267.13;;;20.60
31921;BMP280;66485;52.128;4.436;2023-04-29T12:55:53;102267.13;;;20.60
31921;BMP280;66485;52.128;4.436;2023-04-29T12:58:18;102265.19;;;20.60
31921;BMP280;66485;52.128;4.436;2023-04-29T13:00:44;102265.19;;;20.60
31921;BMP280;66485;52.128;4.436;2023-04-29T13:03:10;102261.66;;;20.70
31921;BMP280;66485;52.128;4.436;2023-04-29T13:05:35;102261.66;;;20.70
31921;BMP280;66485;52.128;4.436;2023-04-29T13:08:00;102263.94;;;20.79
31921;BMP280;66485;52.128;4.436;2023-04-29T13:10:26;102265.84;;;20.82
31921;BMP280;66485;52.128;4.436;2023-04-29T13:12:53;102261.19;;;20.82
31921;BMP280;66485;52.128;4.436;2023-04-29T13:15:18;102270.47;;;20.92
31921;BMP280;66485;52.128;4.436;2023-04-29T13:17:44;102259.16;;;20.94
31921;BMP280;66485;52.128;4.436;2023-04-29T13:20:10;102257.59;;;20.96
31921;BMP280;66485;52.128;4.436;2023-04-29T13:22:36;102265.38;;;20.98
31921;BMP280;66485;52.128;4.436;2023-04-29T13:25:02;102265.38;;;20.98
31921;BMP280;66485;52.128;4.436;2023-04-29T13:27:28;102260.28;;;21.03
31921;BMP280;66485;52.128;4.436;2023-04-29T13:29:54;102265.31;;;21.05
31921;BMP280;66485;52.128;4.436;2023-04-29T13:32:20;102265.31;;;21.05
31921;BMP280;66485;52.128;4.436;2023-04-29T13:34:48;102269.56;;;21.13
31921;BMP280;66485;52.128;4.436;2023-04-29T13:37:13;102279.28;;;21.14
31921;BMP280;66485;52.128;4.436;2023-04-29T13:39:39;102276.13;;;21.22
31921;BMP280;66485;52.128;4.436;2023-04-29T13:42:04;102284.66;;;21.21
31921;BMP280;66485;52.128;4.436;2023-04-29T13:44:30;102284.66;;;21.21
31921;BMP280;66485;52.128;4.436;2023-04-29T13:46:55;102267.94;;;21.19
31921;BMP280;66485;52.128;4.436;2023-04-29T13:49:21;102279.19;;;21.28
31921;BMP280;66485;52.128;4.436;2023-04-29T13:51:47;102279.53;;;21.30
31921;BMP280;66485;52.128;4.436;2023-04-29T13:54:12;102282.66;;;21.32
31921;BMP280;66485;52.128;4.436;2023-04-29T13:56:37;102286.50;;;21.38
31921;BMP280;66485;52.128;4.436;2023-04-29T13:59:03;102296.59;;;21.45
31921;BMP280;66485;52.128;4.436;2023-04-29T14:01:28;102291.91;;;21.45
31921;BMP280;66485;52.128;4.436;2023-04-29T14:03:53;102290.69;;;21.50
31921;BMP280;66485;52.128;4.436;2023-04-29T14:06:19;102294.25;;;21.47
31921;BMP280;66485;52.128;4.436;2023-04-29T14:08:44;102294.94;;;21.54
31921;BMP280;66485;52.128;4.436;2023-04-29T14:11:10;102296.09;;;21.57
31921;BMP280;66485;52.128;4.436;2023-04-29T14:13:35;102291.41;;;21.57
31921;BMP280;66485;52.128;4.436;2023-04-29T14:16:00;102288.69;;;21.57
31921;BMP280;66485;52.128;4.436;2023-04-29T14:18:28;102289.41;;;21.61